Terminal Aerodrome Forecast
Issued by NWS North Platte, NE

Home | Current Version | Previous Version | Text Only | Print | Product List | Glossary On
Versions: 1 2 3 4 5 6 7 8 9 10 11 12 13 14 15 16 17 18 19 20
000
FTUS43 KLBF 280500
TAFVTN
TAF
KVTN 280523Z 2806/2906 27007KT P6SM SCT250
     FM281700 VRB06KT P6SM BKN100
     FM282100 07006KT P6SM BKN050
     FM290100 07008KT P6SM BKN020
     FM290300 04009KT 2SM -SN BR OVC015=

USA.gov is the U.S. government's official web portal to all federal, state and local government web resources and services.